createdAt,value
2019-05-20T00:01:17.705Z,15.60
2019-05-20T00:04:00.183Z,15.50
2019-05-20T00:06:43.281Z,15.60
2019-05-20T00:09:25.768Z,15.60
2019-05-20T00:12:07.778Z,15.70
2019-05-20T00:14:50.379Z,15.70
2019-05-20T00:17:33.240Z,15.60
2019-05-20T00:20:15.717Z,15.60
2019-05-20T00:22:58.372Z,15.60
2019-05-20T00:25:40.870Z,15.60
2019-05-20T00:28:26.556Z,15.60
2019-05-20T00:31:08.617Z,15.50
2019-05-20T00:33:51.366Z,15.50
2019-05-20T00:36:33.910Z,15.40
2019-05-20T00:39:20.477Z,15.30
2019-05-20T00:42:03.153Z,15.30
2019-05-20T00:44:45.686Z,15.30
2019-05-20T00:47:28.156Z,15.30
2019-05-20T00:50:10.677Z,15.30
2019-05-20T00:52:52.988Z,15.30
2019-05-20T00:55:35.666Z,15.20
2019-05-20T00:58:18.267Z,15.10
2019-05-20T01:01:01.058Z,15.10
2019-05-20T01:03:44.062Z,15.10
2019-05-20T01:06:14.370Z,15.10
2019-05-20T01:08:57.031Z,15.10
2019-05-20T01:11:39.271Z,15.10
2019-05-20T01:14:21.858Z,15.10
2019-05-20T01:17:04.066Z,15.10
2019-05-20T01:19:45.826Z,15.10
2019-05-20T01:22:28.506Z,15.10
2019-05-20T01:25:12.083Z,15.10
2019-05-20T01:27:54.477Z,15.00
2019-05-20T01:30:37.025Z,15.10
2019-05-20T01:33:18.824Z,15.10
2019-05-20T01:36:01.292Z,15.10
2019-05-20T01:38:43.140Z,15.10
2019-05-20T01:41:26.036Z,15.10
2019-05-20T01:44:08.657Z,15.10
2019-05-20T01:46:50.776Z,15.10
2019-05-20T01:49:33.037Z,15.20
2019-05-20T01:52:15.750Z,15.20
2019-05-20T01:54:58.695Z,15.10
2019-05-20T01:57:40.719Z,15.20
2019-05-20T02:00:22.783Z,15.30
2019-05-20T02:03:05.394Z,15.20
2019-05-20T02:05:47.996Z,15.20
2019-05-20T02:08:30.032Z,15.10
2019-05-20T02:11:12.977Z,15.10
2019-05-20T02:13:59.156Z,15.10
2019-05-20T02:16:40.996Z,15.10
2019-05-20T02:19:22.966Z,15.10
2019-05-20T02:22:05.359Z,15.00
2019-05-20T02:24:47.549Z,15.00
2019-05-20T02:27:29.754Z,15.00
2019-05-20T02:30:12.313Z,15.00
2019-05-20T02:32:54.186Z,15.00
2019-05-20T02:35:36.597Z,14.90
2019-05-20T02:38:19.027Z,14.90
2019-05-20T02:41:00.829Z,14.90
2019-05-20T02:43:43.665Z,15.00
2019-05-20T02:46:26.193Z,14.90
2019-05-20T02:49:08.052Z,14.90
2019-05-20T02:51:50.309Z,14.80
2019-05-20T02:54:32.230Z,14.70
2019-05-20T02:57:14.134Z,14.60
2019-05-20T02:59:56.737Z,14.60
2019-05-20T03:02:38.810Z,14.60
2019-05-20T03:05:21.354Z,14.60
2019-05-20T03:08:03.298Z,14.50
2019-05-20T03:10:46.088Z,14.70
2019-05-20T03:13:31.705Z,14.80
2019-05-20T03:16:15.744Z,14.80
2019-05-20T03:18:57.264Z,14.80
2019-05-20T03:21:39.248Z,14.80
2019-05-20T03:24:21.961Z,14.80
2019-05-20T03:27:04.944Z,14.80
2019-05-20T03:29:47.321Z,14.80
2019-05-20T03:32:29.353Z,14.70
2019-05-20T03:35:12.207Z,14.70
2019-05-20T03:37:54.308Z,14.60
2019-05-20T03:40:36.037Z,14.50
2019-05-20T03:43:17.736Z,14.50
2019-05-20T03:45:59.505Z,14.80
2019-05-20T03:48:41.346Z,15.20
2019-05-20T03:51:23.181Z,15.40
2019-05-20T03:54:07.694Z,15.90
2019-05-20T03:56:50.714Z,16.00
2019-05-20T03:59:33.286Z,16.20
2019-05-20T04:02:15.936Z,16.00
2019-05-20T04:05:02.548Z,15.80
2019-05-20T04:07:42.098Z,15.70
2019-05-20T04:10:24.049Z,15.60
2019-05-20T04:13:06.699Z,15.50
2019-05-20T04:15:48.682Z,15.50
2019-05-20T04:18:31.049Z,15.60
2019-05-20T04:21:13.906Z,15.50
2019-05-20T04:24:00.811Z,15.30
2019-05-20T04:26:39.743Z,15.30
2019-05-20T04:29:22.418Z,15.30
2019-05-20T04:32:04.654Z,15.40
2019-05-20T04:34:46.598Z,15.50
2019-05-20T04:37:28.983Z,15.40
2019-05-20T04:40:10.683Z,15.40
2019-05-20T04:42:52.737Z,15.40
2019-05-20T04:45:35.342Z,15.30
2019-05-20T04:48:17.651Z,15.20
2019-05-20T04:51:00.543Z,15.20
2019-05-20T04:53:42.346Z,15.40
2019-05-20T04:56:29.022Z,15.40
2019-05-20T04:59:09.789Z,15.50
2019-05-20T05:01:52.626Z,15.70
2019-05-20T05:04:35.287Z,15.90
2019-05-20T05:07:17.009Z,15.90
2019-05-20T05:09:58.794Z,16.00
2019-05-20T05:12:40.828Z,15.90
2019-05-20T05:15:23.486Z,15.90
2019-05-20T05:18:05.370Z,15.80
2019-05-20T05:20:47.122Z,15.90
2019-05-20T05:23:29.994Z,15.80
2019-05-20T05:26:12.610Z,15.70
2019-05-20T05:28:54.445Z,15.90
2019-05-20T05:31:36.950Z,16.10
2019-05-20T05:34:18.749Z,16.30
2019-05-20T05:37:01.189Z,16.50
2019-05-20T05:39:43.631Z,16.50
2019-05-20T05:42:26.029Z,16.60
2019-05-20T05:45:07.771Z,16.80
2019-05-20T05:47:49.806Z,17.30
2019-05-20T05:50:32.226Z,17.30
2019-05-20T05:53:13.954Z,17.20
2019-05-20T05:55:56.709Z,17.50
2019-05-20T05:58:38.473Z,17.50
2019-05-20T06:01:20.458Z,17.40
2019-05-20T06:04:02.545Z,17.50
2019-05-20T06:06:45.348Z,17.50
2019-05-20T06:09:28.083Z,17.70
2019-05-20T06:12:10.513Z,17.90
2019-05-20T06:14:53.029Z,17.90
2019-05-20T06:17:35.412Z,18.00
2019-05-20T06:20:17.913Z,18.10
2019-05-20T06:23:00.420Z,18.40
2019-05-20T06:25:43.227Z,18.60
2019-05-20T06:28:25.621Z,18.90
2019-05-20T06:31:08.225Z,19.20
2019-05-20T06:33:50.425Z,19.40
2019-05-20T06:36:26.795Z,18.80
2019-05-20T06:39:12.219Z,18.60
2019-05-20T06:41:42.866Z,18.80
2019-05-20T06:44:13.233Z,18.80
2019-05-20T06:46:43.629Z,18.80
2019-05-20T06:49:13.762Z,19.00
2019-05-20T06:51:44.126Z,19.20
2019-05-20T06:54:15.467Z,19.00
2019-05-20T06:56:46.653Z,18.90
2019-05-20T06:59:17.200Z,18.70
2019-05-20T07:01:47.418Z,18.80
2019-05-20T07:04:17.794Z,18.80
2019-05-20T07:06:47.942Z,18.80
2019-05-20T07:09:19.118Z,18.80
2019-05-20T07:11:52.780Z,18.60
2019-05-20T07:14:21.225Z,18.80
2019-05-20T07:16:52.420Z,18.80
2019-05-20T07:19:22.872Z,18.90
2019-05-20T07:21:52.993Z,19.00
2019-05-20T07:24:23.637Z,19.20
2019-05-20T07:26:54.294Z,19.40
2019-05-20T07:29:25.066Z,19.70
2019-05-20T07:31:55.288Z,20.10
2019-05-20T07:34:25.643Z,20.20
2019-05-20T07:37:03.418Z,20.60
2019-05-20T07:39:29.532Z,20.80
2019-05-20T07:41:59.999Z,20.80
2019-05-20T07:44:30.542Z,20.90
2019-05-20T07:47:00.678Z,20.90
2019-05-20T07:49:31.542Z,20.80
2019-05-20T07:52:03.692Z,20.80
2019-05-20T07:54:33.959Z,20.70
2019-05-20T07:57:07.564Z,20.40
2019-05-20T07:59:41.247Z,20.70
2019-05-20T08:02:12.259Z,21.10
2019-05-20T08:04:42.667Z,21.30
2019-05-20T08:07:27.447Z,21.60
2019-05-20T08:09:46.433Z,21.80
2019-05-20T08:12:17.431Z,21.90
2019-05-20T08:14:47.620Z,22.20
2019-05-20T08:17:18.053Z,22.10
2019-05-20T08:19:48.887Z,21.80
2019-05-20T08:22:19.070Z,21.80
2019-05-20T08:24:50.339Z,21.80
2019-05-20T08:27:20.473Z,22.00
2019-05-20T08:29:50.756Z,22.10
2019-05-20T08:32:21.252Z,22.00
2019-05-20T08:34:52.432Z,22.10
2019-05-20T08:37:23.424Z,22.40
2019-05-20T08:39:53.819Z,22.50
2019-05-20T08:42:24.242Z,22.40
2019-05-20T08:44:54.347Z,22.60
2019-05-20T08:47:24.465Z,22.60
2019-05-20T08:49:54.753Z,22.80
2019-05-20T08:52:25.083Z,22.60
2019-05-20T08:54:55.713Z,22.30
2019-05-20T08:57:25.843Z,22.40
2019-05-20T08:59:56.006Z,22.80
2019-05-20T09:02:26.121Z,22.80
2019-05-20T09:04:56.750Z,22.30
2019-05-20T09:07:26.889Z,22.40
2019-05-20T09:09:57.348Z,22.90
2019-05-20T09:12:27.516Z,23.00
2019-05-20T09:14:58.152Z,23.40
2019-05-20T09:17:28.276Z,23.60
2019-05-20T09:19:58.473Z,23.50
2019-05-20T09:22:28.598Z,23.60
2019-05-20T09:24:58.888Z,23.70
2019-05-20T09:27:29.300Z,23.90
2019-05-20T09:29:59.530Z,23.70
2019-05-20T09:32:30.139Z,23.70
2019-05-20T09:35:01.843Z,23.80
2019-05-20T09:37:32.987Z,24.00
2019-05-20T09:40:03.472Z,24.30
2019-05-20T09:42:35.359Z,24.30
2019-05-20T09:45:05.786Z,24.20
2019-05-20T09:47:36.413Z,24.30
2019-05-20T09:50:07.292Z,24.30
2019-05-20T09:52:37.494Z,24.10
2019-05-20T09:55:07.991Z,24.30
2019-05-20T09:57:38.167Z,24.30
2019-05-20T10:00:08.633Z,24.50
2019-05-20T10:02:39.401Z,24.20
2019-05-20T10:05:10.666Z,24.30
2019-05-20T10:07:40.790Z,24.20
2019-05-20T10:10:12.259Z,24.20
2019-05-20T10:12:46.642Z,24.20
2019-05-20T10:15:14.559Z,24.00
2019-05-20T10:17:44.572Z,24.00
2019-05-20T10:20:16.465Z,24.00
2019-05-20T10:22:47.151Z,24.00
2019-05-20T10:25:17.437Z,23.60
2019-05-20T10:27:47.929Z,23.60
2019-05-20T10:30:18.600Z,23.50
2019-05-20T10:32:48.859Z,23.40
2019-05-20T10:35:20.106Z,23.40
2019-05-20T10:37:51.880Z,23.70
2019-05-20T10:40:24.320Z,24.00
2019-05-20T10:42:54.528Z,24.30
2019-05-20T10:45:24.901Z,24.20
2019-05-20T10:47:55.057Z,24.00
2019-05-20T10:50:25.478Z,24.00
2019-05-20T10:52:56.029Z,24.10
2019-05-20T10:55:26.487Z,24.10
2019-05-20T10:57:56.623Z,24.20
2019-05-20T11:00:27.208Z,23.90
2019-05-20T11:02:57.734Z,23.60
2019-05-20T11:05:27.896Z,23.80
2019-05-20T11:07:58.660Z,24.00
2019-05-20T11:10:28.785Z,23.80
2019-05-20T11:12:59.036Z,23.70
2019-05-20T11:15:29.242Z,23.80
2019-05-20T11:18:00.619Z,23.80
2019-05-20T11:20:31.016Z,23.90
2019-05-20T11:23:01.561Z,24.00
2019-05-20T11:25:31.943Z,24.10
2019-05-20T11:28:02.307Z,24.30
2019-05-20T11:30:32.506Z,24.30
2019-05-20T11:33:02.777Z,24.30
2019-05-20T11:35:33.463Z,24.20
2019-05-20T11:38:04.239Z,24.20
2019-05-20T11:40:34.499Z,24.20
2019-05-20T11:43:04.651Z,24.30
2019-05-20T11:45:34.784Z,24.30
2019-05-20T11:48:05.064Z,24.20
2019-05-20T11:50:35.460Z,24.30
2019-05-20T11:53:05.602Z,24.40
2019-05-20T11:55:35.758Z,24.20
2019-05-20T11:58:15.265Z,24.10
2019-05-20T12:00:37.859Z,24.30
2019-05-20T12:03:07.988Z,24.20
2019-05-20T12:05:38.124Z,24.10
2019-05-20T12:08:09.416Z,24.10
2019-05-20T12:10:39.527Z,24.20
2019-05-20T12:13:09.652Z,24.40
2019-05-20T12:15:39.782Z,24.40
2019-05-20T12:18:09.904Z,24.70
2019-05-20T12:20:40.019Z,24.70
2019-05-20T12:23:10.396Z,24.50
2019-05-20T12:25:40.526Z,24.40
2019-05-20T12:28:10.650Z,24.30
2019-05-20T12:30:41.288Z,24.20
2019-05-20T12:33:19.669Z,24.30
2019-05-20T12:35:44.137Z,24.30
2019-05-20T12:38:15.503Z,24.30
2019-05-20T12:40:45.865Z,24.30
2019-05-20T12:43:16.225Z,24.20
2019-05-20T12:45:46.572Z,24.40
2019-05-20T12:48:16.769Z,24.40
2019-05-20T12:50:47.006Z,24.20
2019-05-20T12:53:17.118Z,24.30
2019-05-20T12:55:48.535Z,24.70
2019-05-20T12:58:18.662Z,24.80
2019-05-20T13:00:48.801Z,24.50
2019-05-20T13:03:19.278Z,24.40
2019-05-20T13:05:49.958Z,24.30
2019-05-20T13:08:20.295Z,24.10
2019-05-20T13:10:50.730Z,24.00
2019-05-20T13:13:20.942Z,24.00
2019-05-20T13:15:51.147Z,23.90
2019-05-20T13:18:21.599Z,23.70
2019-05-20T13:20:51.977Z,23.60
2019-05-20T13:23:22.457Z,23.40
2019-05-20T13:25:53.549Z,23.20
2019-05-20T13:28:23.961Z,23.10
2019-05-20T13:30:54.132Z,23.10
2019-05-20T13:33:24.409Z,23.00
2019-05-20T13:35:55.236Z,22.80
2019-05-20T13:38:26.519Z,22.80
2019-05-20T13:40:56.928Z,22.80
2019-05-20T13:43:27.322Z,22.50
2019-05-20T13:45:57.780Z,22.30
2019-05-20T13:48:27.911Z,22.00
2019-05-20T13:50:58.031Z,21.60
2019-05-20T13:53:28.400Z,21.00
2019-05-20T13:55:58.543Z,20.50
2019-05-20T13:58:28.666Z,20.00
2019-05-20T14:00:58.789Z,19.70
2019-05-20T14:03:29.000Z,19.50
2019-05-20T14:05:59.623Z,19.40
2019-05-20T14:08:30.244Z,19.40
2019-05-20T14:11:04.422Z,19.20
2019-05-20T14:13:32.213Z,19.20
2019-05-20T14:16:02.339Z,19.30
2019-05-20T14:18:32.713Z,19.50
2019-05-20T14:21:02.854Z,19.60
2019-05-20T14:23:33.491Z,19.60
2019-05-20T14:26:03.639Z,19.50
2019-05-20T14:28:34.567Z,19.50
2019-05-20T14:31:06.005Z,19.50
2019-05-20T14:33:37.129Z,19.60
2019-05-20T14:36:07.876Z,19.70
2019-05-20T14:38:39.646Z,19.80
2019-05-20T14:41:21.075Z,20.00
2019-05-20T14:43:42.717Z,19.90
2019-05-20T14:46:12.906Z,19.80
2019-05-20T14:48:43.318Z,19.80
2019-05-20T14:51:13.478Z,19.80
2019-05-20T14:53:43.692Z,19.80
2019-05-20T14:56:13.842Z,19.90
2019-05-20T14:58:44.474Z,20.00
2019-05-20T15:01:15.006Z,19.90
2019-05-20T15:03:45.627Z,19.90
2019-05-20T15:06:16.259Z,20.00
2019-05-20T15:08:46.410Z,19.90
2019-05-20T15:11:17.049Z,19.80
2019-05-20T15:13:47.336Z,19.90
2019-05-20T15:16:17.799Z,20.00
2019-05-20T15:18:48.082Z,20.10
2019-05-20T15:21:18.319Z,20.30
2019-05-20T15:23:48.775Z,20.80
2019-05-20T15:26:18.923Z,21.00
2019-05-20T15:28:49.509Z,21.00
2019-05-20T15:31:19.648Z,21.10
2019-05-20T15:33:50.284Z,21.00
2019-05-20T15:36:21.284Z,20.80
2019-05-20T15:38:53.429Z,20.80
2019-05-20T15:41:23.637Z,20.60
2019-05-20T15:43:53.923Z,20.50
2019-05-20T15:46:24.073Z,20.60
2019-05-20T15:48:54.708Z,20.70
2019-05-20T15:51:25.178Z,20.70
2019-05-20T15:53:55.551Z,20.80
2019-05-20T15:56:26.053Z,20.40
2019-05-20T15:58:56.210Z,20.60
2019-05-20T16:01:27.562Z,21.70
2019-05-20T16:03:57.666Z,22.00
2019-05-20T16:06:28.371Z,21.90
2019-05-20T16:08:58.488Z,22.00
2019-05-20T16:11:29.011Z,21.70
2019-05-20T16:13:59.489Z,21.70
2019-05-20T16:16:29.618Z,21.80
2019-05-20T16:19:00.792Z,21.40
2019-05-20T16:21:31.497Z,21.40
2019-05-20T16:24:01.931Z,22.30
2019-05-20T16:26:32.431Z,24.00
2019-05-20T16:29:03.059Z,24.50
2019-05-20T16:31:33.440Z,24.20
2019-05-20T16:34:03.840Z,24.30
2019-05-20T16:36:35.130Z,24.10
2019-05-20T16:39:07.848Z,24.00
2019-05-20T16:41:37.985Z,23.10
2019-05-20T16:44:08.186Z,22.50
2019-05-20T16:46:38.570Z,22.40
2019-05-20T16:49:08.958Z,21.80
2019-05-20T16:51:39.408Z,21.80
2019-05-20T16:54:09.847Z,21.80
2019-05-20T16:56:40.201Z,21.80
2019-05-20T16:59:10.937Z,21.50
2019-05-20T17:01:46.224Z,21.20
2019-05-20T17:04:13.166Z,21.10
2019-05-20T17:06:43.554Z,21.00
2019-05-20T17:09:13.958Z,20.70
2019-05-20T17:11:44.168Z,20.60
2019-05-20T17:14:14.847Z,20.50
2019-05-20T17:16:45.609Z,20.40
2019-05-20T17:19:15.785Z,20.20
2019-05-20T17:21:46.428Z,20.20
2019-05-20T17:24:17.144Z,20.20
2019-05-20T17:26:47.301Z,20.20
2019-05-20T17:29:17.697Z,20.30
2019-05-20T17:31:47.861Z,20.20
2019-05-20T17:34:18.287Z,20.00
2019-05-20T17:36:49.041Z,19.90
2019-05-20T17:39:20.611Z,19.70
2019-05-20T17:41:50.734Z,19.60
2019-05-20T17:44:21.107Z,19.50
2019-05-20T17:46:51.755Z,19.50
2019-05-20T17:49:21.962Z,19.50
2019-05-20T17:51:52.679Z,19.40
2019-05-20T17:54:22.795Z,19.40
2019-05-20T17:56:52.986Z,19.40
2019-05-20T17:59:23.098Z,19.40
2019-05-20T18:01:53.476Z,19.30
2019-05-20T18:04:24.212Z,19.20
2019-05-20T18:06:54.339Z,19.20
2019-05-20T18:09:26.884Z,19.10
2019-05-20T18:11:57.338Z,19.10
2019-05-20T18:14:27.722Z,19.10
2019-05-20T18:16:58.056Z,19.00
2019-05-20T18:19:28.155Z,18.90
2019-05-20T18:21:58.559Z,18.90
2019-05-20T18:24:28.949Z,18.80
2019-05-20T18:26:59.087Z,18.80
2019-05-20T18:29:29.701Z,18.80
2019-05-20T18:32:00.159Z,18.70
2019-05-20T18:34:30.626Z,18.70
2019-05-20T18:37:01.979Z,18.60
2019-05-20T18:39:33.228Z,18.60
2019-05-20T18:42:03.887Z,18.60
2019-05-20T18:44:34.059Z,18.50
2019-05-20T18:47:04.500Z,18.40
2019-05-20T18:49:34.677Z,18.40
2019-05-20T18:52:04.887Z,18.40
2019-05-20T18:54:35.976Z,18.30
2019-05-20T18:57:06.127Z,18.20
2019-05-20T18:59:37.050Z,18.30
2019-05-20T19:02:07.239Z,18.30
2019-05-20T19:04:37.432Z,18.30
2019-05-20T19:07:07.899Z,18.20
2019-05-20T19:09:38.278Z,18.10
2019-05-20T19:12:09.067Z,18.20
2019-05-20T19:14:39.682Z,18.10
2019-05-20T19:17:10.191Z,18.10
2019-05-20T19:19:40.643Z,18.00
2019-05-20T19:22:11.007Z,18.10
2019-05-20T19:24:41.121Z,18.00
2019-05-20T19:27:11.561Z,18.00
2019-05-20T19:29:42.169Z,18.00
2019-05-20T19:32:14.122Z,18.00
2019-05-20T19:34:44.508Z,18.00
2019-05-20T19:37:15.319Z,18.00
2019-05-20T19:39:46.469Z,18.00
2019-05-20T19:42:16.836Z,17.90
2019-05-20T19:44:47.438Z,17.90
2019-05-20T19:47:17.836Z,17.70
2019-05-20T19:49:51.920Z,17.60
2019-05-20T19:52:23.157Z,17.60
2019-05-20T19:54:53.851Z,17.70
2019-05-20T19:57:24.480Z,17.60
2019-05-20T19:59:54.599Z,17.70
2019-05-20T20:02:25.216Z,17.70
2019-05-20T20:04:55.333Z,17.70
2019-05-20T20:07:28.694Z,17.70
2019-05-20T20:09:58.010Z,17.60
2019-05-20T20:12:28.378Z,17.60
2019-05-20T20:14:58.473Z,17.70
2019-05-20T20:17:28.895Z,17.60
2019-05-20T20:19:59.492Z,17.60
2019-05-20T20:22:29.822Z,17.70
2019-05-20T20:24:59.981Z,17.80
2019-05-20T20:27:30.684Z,17.70
2019-05-20T20:30:01.142Z,17.60
2019-05-20T20:32:37.766Z,17.60
2019-05-20T20:35:05.656Z,17.50
2019-05-20T20:37:36.586Z,17.50
2019-05-20T20:40:08.149Z,17.30
2019-05-20T20:42:38.290Z,17.20
2019-05-20T20:45:09.045Z,17.20
2019-05-20T20:47:42.195Z,17.00
2019-05-20T20:50:12.151Z,16.80
2019-05-20T20:52:42.855Z,16.90
2019-05-20T20:55:13.797Z,16.80
2019-05-20T20:57:44.664Z,16.50
2019-05-20T21:00:16.596Z,16.50
2019-05-20T21:02:53.403Z,16.30
2019-05-20T21:05:19.122Z,16.20
2019-05-20T21:07:51.770Z,16.10
2019-05-20T21:10:22.090Z,15.90
2019-05-20T21:12:52.218Z,15.90
2019-05-20T21:15:22.623Z,15.90
2019-05-20T21:17:52.732Z,15.80
2019-05-20T21:20:23.102Z,15.70
2019-05-20T21:22:53.235Z,15.70
2019-05-20T21:25:23.354Z,15.70
2019-05-20T21:27:54.003Z,15.60
2019-05-20T21:30:24.561Z,15.60
2019-05-20T21:33:08.268Z,15.60
2019-05-20T21:35:27.237Z,15.70
2019-05-20T21:37:58.744Z,15.60
2019-05-20T21:40:29.382Z,15.50
2019-05-20T21:42:59.745Z,15.40
2019-05-20T21:45:30.099Z,15.40
2019-05-20T21:48:00.223Z,15.40
2019-05-20T21:50:30.570Z,15.30
2019-05-20T21:53:01.201Z,15.30
2019-05-20T21:55:31.807Z,15.20
2019-05-20T21:58:02.327Z,15.10
2019-05-20T22:00:42.398Z,15.10
2019-05-20T22:03:24.144Z,15.10
2019-05-20T22:05:45.133Z,15.00
2019-05-20T22:08:15.563Z,14.90
2019-05-20T22:10:45.955Z,14.80
2019-05-20T22:13:16.294Z,15.00
2019-05-20T22:15:46.402Z,14.90
2019-05-20T22:18:16.716Z,15.00
2019-05-20T22:20:47.118Z,15.00
2019-05-20T22:23:48.374Z,15.00
2019-05-20T22:26:18.593Z,15.10
2019-05-20T22:28:48.955Z,14.90
2019-05-20T22:31:19.081Z,14.90
2019-05-20T22:33:49.706Z,14.90
2019-05-20T22:36:19.924Z,14.80
2019-05-20T22:38:50.562Z,14.70
2019-05-20T22:41:21.820Z,14.50
2019-05-20T22:43:51.942Z,14.50
2019-05-20T22:46:22.161Z,14.50
2019-05-20T22:48:52.279Z,14.60
2019-05-20T22:51:22.636Z,14.60
2019-05-20T22:53:52.751Z,14.70
2019-05-20T22:56:23.940Z,14.60
2019-05-20T22:58:54.154Z,14.40
2019-05-20T23:01:24.540Z,14.30
2019-05-20T23:03:56.672Z,14.30
2019-05-20T23:06:27.231Z,14.20
2019-05-20T23:08:58.079Z,14.30
2019-05-20T23:11:28.272Z,14.20
2019-05-20T23:13:58.383Z,14.20
2019-05-20T23:16:28.980Z,14.20
2019-05-20T23:18:59.619Z,14.20
2019-05-20T23:21:29.792Z,14.20
2019-05-20T23:23:59.918Z,14.10
2019-05-20T23:26:30.015Z,14.00
2019-05-20T23:29:00.145Z,13.90
2019-05-20T23:31:30.263Z,13.90
2019-05-20T23:34:12.440Z,13.90
2019-05-20T23:36:32.663Z,13.80
2019-05-20T23:39:05.523Z,13.80
2019-05-20T23:41:36.616Z,13.80
2019-05-20T23:44:06.750Z,13.90
2019-05-20T23:46:37.160Z,13.90
2019-05-20T23:49:08.971Z,13.90
2019-05-20T23:51:39.121Z,13.90
2019-05-20T23:54:09.770Z,14.10
2019-05-20T23:56:40.391Z,14.00
2019-05-20T23:59:10.522Z,13.90
